createdAt,value
2019-04-03T00:01:25.021Z,12.60
2019-04-03T00:03:57.526Z,15.23
2019-04-03T00:06:29.618Z,13.17
2019-04-03T00:09:01.763Z,14.30
2019-04-03T00:11:34.045Z,14.57
2019-04-03T00:14:06.331Z,14.37
2019-04-03T00:16:38.508Z,17.60
2019-04-03T00:19:10.711Z,17.33
2019-04-03T00:21:42.819Z,16.57
2019-04-03T00:24:14.982Z,17.90
2019-04-03T00:26:47.363Z,19.33
2019-04-03T00:29:22.029Z,14.03
2019-04-03T00:31:53.976Z,12.80
2019-04-03T00:34:26.216Z,17.30
2019-04-03T00:36:58.363Z,17.80
2019-04-03T00:39:30.425Z,13.93
2019-04-03T00:42:02.582Z,13.20
2019-04-03T00:44:34.773Z,12.27
2019-04-03T00:47:07.209Z,17.20
2019-04-03T00:49:39.363Z,14.17
2019-04-03T00:52:11.379Z,13.33
2019-04-03T00:54:43.471Z,14.90
2019-04-03T00:57:15.485Z,12.93
2019-04-03T00:59:47.603Z,19.00
2019-04-03T01:02:19.733Z,14.27
2019-04-03T01:04:51.920Z,16.73
2019-04-03T01:07:24.067Z,12.57
2019-04-03T01:09:56.134Z,18.50
2019-04-03T01:12:30.376Z,11.13
2019-04-03T01:15:02.566Z,11.20
2019-04-03T01:17:35.247Z,11.63
2019-04-03T01:20:08.677Z,14.00
2019-04-03T01:22:40.878Z,15.73
2019-04-03T01:25:13.336Z,13.43
2019-04-03T01:27:45.470Z,15.00
2019-04-03T01:30:18.170Z,20.67
2019-04-03T01:32:50.255Z,16.10
2019-04-03T01:35:22.435Z,12.60
2019-04-03T01:37:55.071Z,16.37
2019-04-03T01:40:27.209Z,13.33
2019-04-03T01:42:59.257Z,16.60
2019-04-03T01:45:31.318Z,14.50
2019-04-03T01:48:03.349Z,14.93
2019-04-03T01:50:35.541Z,18.57
2019-04-03T01:53:07.637Z,14.37
2019-04-03T01:55:39.765Z,18.83
2019-04-03T01:58:11.793Z,14.40
2019-04-03T02:00:43.929Z,15.27
2019-04-03T02:03:16.011Z,20.27
2019-04-03T02:05:48.629Z,17.47
2019-04-03T02:08:20.809Z,18.70
2019-04-03T02:10:52.992Z,15.43
2019-04-03T02:13:25.019Z,22.40
2019-04-03T02:15:57.253Z,17.13
2019-04-03T02:18:29.420Z,18.93
2019-04-03T02:21:01.468Z,16.33
2019-04-03T02:23:33.494Z,18.23
2019-04-03T02:26:05.777Z,17.73
2019-04-03T02:28:37.878Z,21.03
2019-04-03T02:31:10.242Z,14.80
2019-04-03T02:33:42.639Z,18.00
2019-04-03T02:36:15.068Z,19.23
2019-04-03T02:38:47.566Z,14.03
2019-04-03T02:41:19.871Z,14.20
2019-04-03T02:43:51.938Z,15.87
2019-04-03T02:46:26.948Z,18.50
2019-04-03T02:48:57.978Z,16.97
2019-04-03T02:51:30.341Z,21.33
2019-04-03T02:54:03.216Z,17.97
2019-04-03T02:56:35.561Z,13.70
2019-04-03T02:59:07.705Z,18.90
2019-04-03T03:01:40.695Z,14.07
2019-04-03T03:04:13.561Z,16.47
2019-04-03T03:06:45.909Z,24.70
2019-04-03T03:09:19.537Z,15.43
2019-04-03T03:11:54.909Z,17.47
2019-04-03T03:14:27.052Z,16.37
2019-04-03T03:17:01.093Z,15.27
2019-04-03T03:19:34.090Z,17.37
2019-04-03T03:22:06.778Z,20.60
2019-04-03T03:24:39.152Z,18.07
2019-04-03T03:27:12.989Z,19.27
2019-04-03T03:29:45.218Z,16.77
2019-04-03T03:32:22.341Z,24.30
2019-04-03T03:35:06.350Z,16.50
2019-04-03T03:37:26.766Z,18.83
2019-04-03T03:40:00.167Z,17.30
2019-04-03T03:42:34.942Z,16.50
2019-04-03T03:45:08.090Z,19.10
2019-04-03T03:48:00.072Z,18.50
2019-04-03T03:50:37.027Z,22.17
2019-04-03T03:53:12.294Z,18.70
2019-04-03T03:55:44.723Z,22.10
2019-04-03T03:58:17.949Z,20.07
2019-04-03T04:00:52.127Z,30.33
2019-04-03T04:03:25.150Z,19.90
2019-04-03T04:05:57.488Z,21.13
2019-04-03T04:08:31.767Z,25.50
2019-04-03T04:11:04.674Z,18.27
2019-04-03T04:13:37.823Z,19.57
2019-04-03T04:16:10.203Z,23.70
2019-04-03T04:18:42.331Z,19.43
2019-04-03T04:21:15.703Z,20.83
2019-04-03T04:23:47.976Z,19.80
2019-04-03T04:26:20.731Z,19.27
2019-04-03T04:28:53.446Z,22.83
2019-04-03T04:31:25.558Z,23.33
2019-04-03T04:33:58.054Z,21.13
2019-04-03T04:36:30.206Z,15.93
2019-04-03T04:39:02.861Z,20.07
2019-04-03T04:41:35.077Z,27.80
2019-04-03T04:44:08.031Z,16.90
2019-04-03T04:46:43.596Z,18.80
2019-04-03T04:49:15.363Z,14.20
2019-04-03T04:51:47.373Z,18.20
2019-04-03T04:54:19.500Z,21.37
2019-04-03T04:56:51.509Z,20.73
2019-04-03T04:59:23.677Z,22.70
2019-04-03T05:01:55.768Z,17.30
2019-04-03T05:04:27.981Z,17.13
2019-04-03T05:07:00.523Z,21.33
2019-04-03T05:09:34.806Z,15.53
2019-04-03T05:12:09.350Z,15.97
2019-04-03T05:14:41.147Z,17.23
2019-04-03T05:17:13.723Z,25.13
2019-04-03T05:19:46.880Z,17.77
2019-04-03T05:22:19.717Z,19.37
2019-04-03T05:24:51.772Z,20.17
2019-04-03T05:27:24.326Z,25.13
2019-04-03T05:29:56.616Z,17.30
2019-04-03T05:32:28.763Z,19.33
2019-04-03T05:35:00.925Z,19.30
2019-04-03T05:37:33.540Z,20.87
2019-04-03T05:40:06.714Z,18.37
2019-04-03T05:42:38.878Z,29.87
2019-04-03T05:45:11.538Z,20.93
2019-04-03T05:47:43.557Z,20.03
2019-04-03T05:50:15.983Z,21.47
2019-04-03T05:52:48.126Z,16.90
2019-04-03T05:55:20.349Z,17.03
2019-04-03T05:57:52.583Z,20.40
2019-04-03T06:00:24.778Z,22.33
2019-04-03T06:02:57.866Z,22.37
2019-04-03T06:05:30.345Z,18.90
2019-04-03T06:08:02.961Z,20.07
2019-04-03T06:10:37.432Z,18.37
2019-04-03T06:13:08.980Z,19.57
2019-04-03T06:15:42.467Z,21.27
2019-04-03T06:18:17.321Z,16.47
2019-04-03T06:20:48.420Z,20.17
2019-04-03T06:23:21.424Z,19.60
2019-04-03T06:25:54.469Z,17.53
2019-04-03T06:28:26.610Z,24.13
2019-04-03T06:30:59.004Z,19.83
2019-04-03T06:33:31.975Z,23.83
2019-04-03T06:36:05.083Z,20.83
2019-04-03T06:38:37.093Z,17.97
2019-04-03T06:41:09.576Z,25.30
2019-04-03T06:43:41.994Z,20.40
2019-04-03T06:46:14.332Z,19.43
2019-04-03T06:48:46.524Z,18.10
2019-04-03T06:51:18.878Z,16.07
2019-04-03T06:53:51.114Z,15.57
2019-04-03T06:56:23.238Z,18.57
2019-04-03T06:58:55.284Z,15.00
2019-04-03T07:01:27.402Z,16.03
2019-04-03T07:03:59.425Z,18.53
2019-04-03T07:06:31.797Z,14.33
2019-04-03T07:09:05.499Z,30.63
2019-04-03T07:11:37.642Z,21.37
2019-04-03T07:14:09.786Z,15.13
2019-04-03T07:16:42.373Z,16.97
2019-04-03T07:19:14.529Z,18.00
2019-04-03T07:21:46.818Z,13.33
2019-04-03T07:24:19.071Z,18.33
2019-04-03T07:26:51.358Z,23.23
2019-04-03T07:29:25.672Z,23.23
2019-04-03T07:31:57.393Z,23.73
2019-04-03T07:34:29.711Z,20.23
2019-04-03T07:37:03.128Z,15.97
2019-04-03T07:39:35.430Z,23.90
2019-04-03T07:42:07.541Z,23.53
2019-04-03T07:44:39.582Z,15.00
2019-04-03T07:47:11.946Z,17.47
2019-04-03T07:49:44.203Z,19.77
2019-04-03T07:52:17.697Z,14.97
2019-04-03T07:54:50.709Z,22.40
2019-04-03T07:57:23.956Z,22.77
2019-04-03T07:59:56.115Z,17.00
2019-04-03T08:02:28.280Z,19.93
2019-04-03T08:05:00.926Z,19.17
2019-04-03T08:07:33.107Z,15.30
2019-04-03T08:10:05.756Z,17.47
2019-04-03T08:12:37.877Z,16.53
2019-04-03T08:15:13.476Z,16.33
2019-04-03T08:17:45.627Z,17.23
2019-04-03T08:20:19.879Z,17.10
2019-04-03T08:22:51.703Z,21.17
2019-04-03T08:25:23.997Z,19.57
2019-04-03T08:27:56.222Z,19.97
2019-04-03T08:30:28.420Z,26.47
2019-04-03T08:33:00.527Z,18.93
2019-04-03T08:35:34.946Z,21.23
2019-04-03T08:38:07.403Z,16.67
2019-04-03T08:40:39.555Z,14.10
2019-04-03T08:43:11.892Z,19.97
2019-04-03T08:45:44.367Z,14.70
2019-04-03T08:48:17.480Z,26.67
2019-04-03T08:50:50.347Z,19.13
2019-04-03T08:53:22.549Z,20.67
2019-04-03T08:55:57.034Z,21.17
2019-04-03T08:58:29.155Z,17.40
2019-04-03T09:01:03.604Z,19.63
2019-04-03T09:03:35.356Z,16.57
2019-04-03T09:06:07.388Z,23.03
2019-04-03T09:08:39.647Z,30.67
2019-04-03T09:11:11.927Z,18.33
2019-04-03T09:13:44.105Z,17.87
2019-04-03T09:16:16.272Z,19.30
2019-04-03T09:18:48.632Z,29.63
2019-04-03T09:21:20.928Z,25.77
2019-04-03T09:23:53.712Z,19.57
2019-04-03T09:26:27.120Z,21.03
2019-04-03T09:28:59.367Z,33.73
2019-04-03T09:31:31.485Z,21.43
2019-04-03T09:34:03.523Z,20.40
2019-04-03T09:36:35.591Z,19.07
2019-04-03T09:39:13.937Z,21.33
2019-04-03T09:41:46.294Z,23.47
2019-04-03T09:44:18.378Z,21.43
2019-04-03T09:46:50.939Z,21.50
2019-04-03T09:49:23.314Z,31.73
2019-04-03T09:51:55.685Z,29.07
2019-04-03T09:54:28.776Z,26.27
2019-04-03T09:57:04.595Z,21.20
2019-04-03T09:59:37.439Z,25.33
2019-04-03T10:02:08.680Z,30.63
2019-04-03T10:04:40.939Z,16.77
2019-04-03T10:07:13.013Z,23.37
2019-04-03T10:09:45.076Z,33.40
2019-04-03T10:12:17.086Z,16.50
2019-04-03T10:14:49.374Z,29.33
2019-04-03T10:17:21.526Z,21.17
2019-04-03T10:19:53.591Z,22.13
2019-04-03T10:22:26.269Z,25.27
2019-04-03T10:25:00.251Z,22.47
2019-04-03T10:27:32.533Z,33.93
2019-04-03T10:30:06.271Z,21.93
2019-04-03T10:32:38.451Z,22.53
2019-04-03T10:35:12.278Z,21.30
2019-04-03T10:37:46.276Z,25.60
2019-04-03T10:40:19.078Z,25.07
2019-04-03T10:42:51.145Z,24.67
2019-04-03T10:45:23.912Z,21.03
2019-04-03T10:47:56.752Z,23.20
2019-04-03T10:50:29.603Z,20.73
2019-04-03T10:53:02.242Z,19.33
2019-04-03T10:55:34.915Z,17.77
2019-04-03T10:58:08.359Z,28.93
2019-04-03T11:00:41.250Z,23.37
2019-04-03T11:03:13.327Z,19.70
2019-04-03T11:05:45.838Z,23.10
2019-04-03T11:08:19.077Z,20.27
2019-04-03T11:10:51.399Z,25.17
2019-04-03T11:13:23.503Z,19.30
2019-04-03T11:15:55.797Z,19.13
2019-04-03T11:18:28.271Z,20.40
2019-04-03T11:21:01.037Z,17.47
2019-04-03T11:23:38.971Z,24.30
2019-04-03T11:26:07.254Z,23.07
2019-04-03T11:28:39.410Z,21.70
2019-04-03T11:31:23.915Z,16.27
2019-04-03T11:33:46.259Z,22.67
2019-04-03T11:36:19.170Z,20.87
2019-04-03T11:38:51.430Z,19.93
2019-04-03T11:41:24.432Z,19.87
2019-04-03T11:43:56.948Z,24.33
2019-04-03T11:46:29.197Z,19.97
2019-04-03T11:49:01.570Z,18.87
2019-04-03T11:51:34.464Z,18.27
2019-04-03T11:54:07.893Z,23.23
2019-04-03T11:56:40.394Z,21.80
2019-04-03T11:59:12.773Z,15.33
2019-04-03T12:01:45.303Z,22.17
2019-04-03T12:04:17.473Z,18.00
2019-04-03T12:06:49.788Z,21.20
2019-04-03T12:09:23.314Z,26.03
2019-04-03T12:11:55.558Z,26.50
2019-04-03T12:14:28.108Z,31.03
2019-04-03T12:17:00.355Z,21.20
2019-04-03T12:19:32.658Z,21.57
2019-04-03T12:22:05.259Z,19.40
2019-04-03T12:24:37.332Z,22.70
2019-04-03T12:27:09.399Z,21.50
2019-04-03T12:29:41.437Z,24.83
2019-04-03T12:32:13.474Z,20.13
2019-04-03T12:34:45.679Z,19.63
2019-04-03T12:37:18.709Z,21.83
2019-04-03T12:39:52.002Z,21.53
2019-04-03T12:42:24.483Z,18.97
2019-04-03T12:44:57.166Z,20.43
2019-04-03T12:47:29.346Z,25.00
2019-04-03T12:50:02.060Z,27.70
2019-04-03T12:52:34.513Z,27.97
2019-04-03T12:55:07.947Z,20.83
2019-04-03T12:57:40.426Z,26.07
2019-04-03T13:00:17.159Z,24.53
2019-04-03T13:02:50.091Z,18.80
2019-04-03T13:05:23.384Z,19.77
2019-04-03T13:07:55.720Z,21.77
2019-04-03T13:10:40.130Z,18.80
2019-04-03T13:13:01.738Z,25.53
2019-04-03T13:15:34.967Z,17.33
2019-04-03T13:18:07.807Z,25.13
2019-04-03T13:20:40.081Z,19.77
2019-04-03T13:23:13.336Z,26.17
2019-04-03T13:25:45.967Z,28.90
2019-04-03T13:28:18.315Z,22.80
2019-04-03T13:30:50.545Z,21.27
2019-04-03T13:33:22.745Z,25.47
2019-04-03T13:35:55.097Z,24.47
2019-04-03T13:38:28.922Z,26.23
2019-04-03T13:41:00.873Z,26.80
2019-04-03T13:43:33.944Z,25.37
2019-04-03T13:46:06.433Z,21.27
2019-04-03T13:48:38.627Z,17.43
2019-04-03T13:51:12.478Z,22.50
2019-04-03T13:53:44.501Z,23.30
2019-04-03T13:56:16.670Z,23.03
2019-04-03T13:58:50.643Z,23.47
2019-04-03T14:01:22.783Z,20.67
2019-04-03T14:03:54.821Z,21.87
2019-04-03T14:06:26.910Z,28.63
2019-04-03T14:08:59.087Z,20.43
2019-04-03T14:11:31.492Z,20.73
2019-04-03T14:14:04.327Z,32.30
2019-04-03T14:16:36.933Z,21.93
2019-04-03T14:19:11.591Z,16.57
2019-04-03T14:21:42.944Z,21.57
2019-04-03T14:24:15.044Z,21.87
2019-04-03T14:26:47.192Z,23.90
2019-04-03T14:29:19.317Z,20.40
2019-04-03T14:31:51.344Z,22.77
2019-04-03T14:34:23.439Z,22.73
2019-04-03T14:36:55.462Z,18.97
2019-04-03T14:39:27.655Z,24.60
2019-04-03T14:41:59.786Z,21.43
2019-04-03T14:44:32.087Z,28.50
2019-04-03T14:47:04.538Z,20.90
2019-04-03T14:49:36.590Z,22.77
2019-04-03T14:52:08.661Z,20.00
2019-04-03T14:54:40.759Z,16.37
2019-04-03T14:57:20.351Z,26.80
2019-04-03T14:59:46.819Z,23.77
2019-04-03T15:02:19.104Z,28.43
2019-04-03T15:04:51.258Z,17.93
2019-04-03T15:07:25.134Z,30.33
2019-04-03T15:09:59.246Z,21.57
2019-04-03T15:12:31.255Z,23.90
2019-04-03T15:15:03.672Z,25.07
2019-04-03T15:17:37.592Z,18.27
2019-04-03T15:20:12.358Z,19.67
2019-04-03T15:22:44.499Z,23.40
2019-04-03T15:25:19.560Z,19.33
2019-04-03T15:27:50.902Z,21.93
2019-04-03T15:30:24.913Z,20.87
2019-04-03T15:32:57.164Z,22.53
2019-04-03T15:35:31.626Z,30.17
2019-04-03T15:38:03.177Z,17.13
2019-04-03T15:40:35.293Z,19.17
2019-04-03T15:43:10.854Z,18.53
2019-04-03T15:45:41.572Z,19.70
2019-04-03T15:48:13.867Z,24.03
2019-04-03T15:50:46.402Z,22.83
2019-04-03T15:53:18.645Z,18.23
2019-04-03T15:55:50.685Z,21.20
2019-04-03T15:58:25.713Z,21.83
2019-04-03T16:00:57.334Z,22.83
2019-04-03T16:03:29.540Z,25.60
2019-04-03T16:06:03.489Z,18.33
2019-04-03T16:08:35.860Z,25.13
2019-04-03T16:11:08.132Z,18.17
2019-04-03T16:13:40.225Z,20.67
2019-04-03T16:16:12.613Z,22.27
2019-04-03T16:18:45.565Z,26.13
2019-04-03T16:21:17.659Z,17.63
2019-04-03T16:23:50.315Z,24.83
2019-04-03T16:26:23.839Z,26.17
2019-04-03T16:28:57.145Z,19.67
2019-04-03T16:31:30.461Z,24.53
2019-04-03T16:34:02.887Z,26.30
2019-04-03T16:36:35.223Z,29.43
2019-04-03T16:39:10.422Z,21.57
2019-04-03T16:41:44.685Z,26.77
2019-04-03T16:44:16.578Z,26.90
2019-04-03T16:46:49.046Z,20.17
2019-04-03T16:49:23.911Z,29.67
2019-04-03T16:51:56.214Z,27.40
2019-04-03T16:54:29.506Z,24.97
2019-04-03T16:57:03.734Z,27.60
2019-04-03T16:59:36.884Z,19.83
2019-04-03T17:02:09.984Z,24.60
2019-04-03T17:04:42.372Z,20.47
2019-04-03T17:07:15.126Z,25.60
2019-04-03T17:09:47.847Z,22.23
2019-04-03T17:12:20.046Z,20.53
2019-04-03T17:14:52.950Z,17.40
2019-04-03T17:17:26.005Z,19.80
2019-04-03T17:19:58.508Z,19.90
2019-04-03T17:22:31.037Z,23.90
2019-04-03T17:25:03.408Z,17.60
2019-04-03T17:27:36.051Z,18.57
2019-04-03T17:30:10.305Z,28.73
2019-04-03T17:32:42.679Z,56.20
2019-04-03T17:35:16.278Z,21.43
2019-04-03T17:37:48.509Z,23.43
2019-04-03T17:40:20.626Z,19.43
2019-04-03T17:42:52.749Z,48.53
2019-04-03T17:45:25.063Z,34.73
2019-04-03T17:47:57.231Z,29.67
2019-04-03T17:50:30.703Z,41.27
2019-04-03T17:53:02.833Z,18.93
2019-04-03T17:55:35.445Z,31.23
2019-04-03T17:58:07.910Z,21.60
2019-04-03T18:00:40.488Z,26.43
2019-04-03T18:03:12.598Z,23.20
2019-04-03T18:05:44.784Z,25.30
2019-04-03T18:08:17.006Z,21.20
2019-04-03T18:10:49.227Z,21.30
2019-04-03T18:13:23.165Z,28.10
2019-04-03T18:15:58.635Z,21.73
2019-04-03T18:18:29.111Z,19.17
2019-04-03T18:21:01.414Z,15.93
2019-04-03T18:23:33.433Z,19.43
2019-04-03T18:26:06.309Z,21.30
2019-04-03T18:28:38.480Z,11.27
2019-04-03T18:31:11.817Z,13.27
2019-04-03T18:33:44.816Z,13.80
2019-04-03T18:36:17.233Z,10.03
2019-04-03T18:38:49.321Z,9.03
2019-04-03T18:41:21.728Z,7.87
2019-04-03T18:43:55.015Z,6.83
2019-04-03T18:46:32.435Z,6.50
2019-04-03T18:49:01.805Z,9.37
2019-04-03T18:51:36.484Z,7.73
2019-04-03T18:54:09.760Z,7.50
2019-04-03T18:56:45.622Z,6.90
2019-04-03T18:59:16.721Z,7.07
2019-04-03T19:01:48.929Z,6.73
2019-04-03T19:04:21.245Z,5.37
2019-04-03T19:06:53.344Z,6.30
2019-04-03T19:09:26.098Z,5.90
2019-04-03T19:12:07.939Z,5.77
2019-04-03T19:14:32.289Z,6.17
2019-04-03T19:17:04.549Z,5.37
2019-04-03T19:19:36.849Z,4.87
2019-04-03T19:22:09.186Z,20.90
2019-04-03T19:24:41.304Z,9.37
2019-04-03T19:27:13.483Z,7.70
2019-04-03T19:29:45.594Z,10.23
2019-04-03T19:32:17.741Z,6.73
2019-04-03T19:34:51.950Z,6.90
2019-04-03T19:37:23.774Z,6.70
2019-04-03T19:39:55.943Z,6.87
2019-04-03T19:42:29.208Z,8.03
2019-04-03T19:45:01.372Z,9.50
2019-04-03T19:47:33.515Z,7.20
2019-04-03T19:50:09.139Z,7.27
2019-04-03T19:52:42.182Z,7.30
2019-04-03T19:55:15.136Z,8.53
2019-04-03T19:57:47.328Z,9.17
2019-04-03T20:00:20.023Z,9.07
2019-04-03T20:02:52.274Z,7.90
2019-04-03T20:05:24.786Z,8.40
2019-04-03T20:07:58.630Z,8.00
2019-04-03T20:10:33.501Z,7.80
2019-04-03T20:13:04.954Z,8.80
2019-04-03T20:15:37.233Z,8.60
2019-04-03T20:18:09.391Z,7.50
2019-04-03T20:20:41.664Z,10.27
2019-04-03T20:23:13.817Z,8.63
2019-04-03T20:25:46.542Z,8.40
2019-04-03T20:28:19.147Z,10.50
2019-04-03T20:30:51.498Z,7.40
2019-04-03T20:33:23.645Z,12.57
2019-04-03T20:35:55.782Z,7.83
2019-04-03T20:38:27.984Z,9.57
2019-04-03T20:41:02.729Z,7.53
2019-04-03T20:43:34.667Z,6.97
2019-04-03T20:46:07.386Z,7.00
2019-04-03T20:48:39.746Z,6.17
2019-04-03T20:51:12.435Z,6.30
2019-04-03T20:53:44.830Z,6.30
2019-04-03T20:56:17.048Z,8.63
2019-04-03T20:58:55.780Z,7.60
2019-04-03T21:01:23.036Z,7.03
2019-04-03T21:03:55.257Z,5.77
2019-04-03T21:06:27.410Z,8.57
2019-04-03T21:08:59.629Z,5.60
2019-04-03T21:11:32.614Z,5.63
2019-04-03T21:14:06.303Z,5.60
2019-04-03T21:16:38.831Z,5.87
2019-04-03T21:19:10.987Z,5.63
2019-04-03T21:21:43.499Z,5.43
2019-04-03T21:24:15.674Z,5.10
2019-04-03T21:26:47.933Z,5.43
2019-04-03T21:29:20.049Z,5.57
2019-04-03T21:31:52.199Z,5.73
2019-04-03T21:34:24.499Z,5.50
2019-04-03T21:36:56.763Z,5.50
2019-04-03T21:39:29.068Z,5.50
2019-04-03T21:42:01.714Z,6.70
2019-04-03T21:44:34.502Z,6.30
2019-04-03T21:47:07.005Z,6.30
2019-04-03T21:49:39.522Z,7.10
2019-04-03T21:52:11.696Z,5.80
2019-04-03T21:54:43.919Z,6.20
2019-04-03T21:57:16.089Z,7.80
2019-04-03T21:59:48.676Z,6.43
2019-04-03T22:02:21.069Z,6.53
2019-04-03T22:04:54.538Z,8.40
2019-04-03T22:07:28.606Z,8.03
2019-04-03T22:10:01.943Z,7.70
2019-04-03T22:12:36.680Z,7.97
2019-04-03T22:15:13.586Z,7.70
2019-04-03T22:17:44.164Z,7.37
2019-04-03T22:20:16.287Z,7.90
2019-04-03T22:22:48.976Z,6.70
2019-04-03T22:25:21.511Z,7.77
2019-04-03T22:27:53.728Z,7.57
2019-04-03T22:30:25.986Z,8.20
2019-04-03T22:32:58.350Z,7.40
2019-04-03T22:35:32.144Z,9.07
2019-04-03T22:38:05.512Z,7.60
2019-04-03T22:40:39.119Z,7.37
2019-04-03T22:43:15.360Z,7.73
2019-04-03T22:45:47.082Z,8.83
2019-04-03T22:48:19.316Z,8.83
2019-04-03T22:50:51.584Z,8.03
2019-04-03T22:53:23.654Z,9.23
2019-04-03T22:55:56.037Z,8.43
2019-04-03T22:58:28.224Z,8.57
2019-04-03T23:01:00.496Z,9.40
2019-04-03T23:03:33.885Z,8.33
2019-04-03T23:06:06.581Z,8.87
2019-04-03T23:08:38.657Z,8.03
2019-04-03T23:11:11.115Z,8.43
2019-04-03T23:13:43.322Z,9.03
2019-04-03T23:16:15.430Z,8.93
2019-04-03T23:18:47.563Z,9.87
2019-04-03T23:21:19.677Z,9.73
2019-04-03T23:23:51.823Z,9.83
2019-04-03T23:26:24.315Z,9.13
2019-04-03T23:28:57.085Z,11.07
2019-04-03T23:31:29.330Z,13.73
2019-04-03T23:34:01.639Z,11.00
2019-04-03T23:36:33.841Z,9.80
2019-04-03T23:39:08.668Z,11.60
2019-04-03T23:41:40.984Z,12.73
2019-04-03T23:44:13.396Z,11.63
2019-04-03T23:46:46.076Z,12.00
2019-04-03T23:49:20.181Z,12.60
2019-04-03T23:51:52.232Z,12.40
2019-04-03T23:54:24.350Z,12.87
2019-04-03T23:56:56.391Z,13.50
2019-04-03T23:59:28.469Z,12.53
